PWSweather.com
Personal Weather Stations
Station Observations
RTINEZ
TerrassaES 08226

TerrassaES 08226

Lat: 41.5762194, Lon: 2.028993700000001

Elevation: 367

Station Type: Watson W8681

www.rtinez.cat

High Low Average
Temperature 78.6°F25.9°C 60.6°F15.9°C 69.1°F20.6°C
Dew Point 56.8°F13.8°C 47.3°F8.5°C 52.8°F11.6°C
Winds 26.6 mph 42.8 kmh Calm Calm 11.0 mph E17.7 kmh E
Wind Gusts 37.4 mph60.2 kmh 2.2 mph3.5 kmh 22.0 mph35.4 kmh
Humidity 73% 41% 57%
Pressure 30.21 in1023.0 mb 29.86 in1011.2 mb -
Precipitation 0.14 in3.6 mm - -
Hour Temp Dew Point Humidity Winds Wind Gusts Pressure Precip Precip Rate Daily Precip Total
12:00 AM 60.6°F15.9°C 51.9°F11.1°C 73% 3.8 mph N6.1 kmh N 12.1 mph19.5 kmh 29.88 in1011.9 mb 0.00 in0.0 mm 0.00 in0.0 mm 0.00 in0.0 mm
12:15 AM 62.2°F16.8°C 52.0°F11.1°C 69% 13.0 mph N20.9 kmh N 28.2 mph45.4 kmh 29.88 in1011.9 mb 0.00 in0.0 mm 0.00 in0.0 mm 0.00 in0.0 mm
12:30 AM 62.6°F17.0°C 50.7°F10.4°C 65% 9.8 mph NNW15.8 kmh NNW 24.4 mph39.3 kmh 29.88 in1011.9 mb 0.00 in0.0 mm 0.00 in0.0 mm 0.00 in0.0 mm
12:45 AM 62.2°F16.8°C 51.6°F10.9°C 68% 19.0 mph NNE30.6 kmh NNE 34.9 mph56.2 kmh 29.89 in1012.2 mb 0.00 in0.0 mm 0.00 in0.0 mm 0.00 in0.0 mm
01:00 AM 61.2°F16.2°C 51.7°F10.9°C 71% 15.2 mph NNE24.5 kmh NNE 32.7 mph52.6 kmh 29.89 in1012.2 mb 0.01 in0.3 mm 0.01 in0.3 mm 0.01 in0.3 mm
01:15 AM 60.8°F16.0°C 52.1°F11.2°C 73% 12.1 mph NE19.5 kmh NE 25.9 mph41.7 kmh 29.89 in1012.2 mb 0.03 in0.8 mm 0.08 in2.0 mm 0.03 in0.8 mm
01:30 AM 61.5°F16.4°C 51.7°F10.9°C 70% 16.8 mph NE27.0 kmh NE 26.6 mph42.8 kmh 29.88 in1011.9 mb 0.04 in1.0 mm 0.04 in1.0 mm 0.04 in1.0 mm
01:45 AM 62.4°F16.9°C 52.1°F11.2°C 69% 13.0 mph NNE20.9 kmh NNE 26.6 mph42.8 kmh 29.89 in1012.2 mb 0.04 in1.0 mm 0.00 in0.0 mm 0.04 in1.0 mm
02:00 AM 63.1°F17.3°C 50.8°F10.4°C 64% 14.5 mph NNE23.3 kmh NNE 27.3 mph43.9 kmh 29.88 in1011.9 mb 0.03 in0.8 mm 0.00 in0.0 mm 0.04 in1.0 mm
02:15 AM 64.0°F17.8°C 50.3°F10.2°C 61% 13.0 mph NE20.9 kmh NE 29.8 mph48.0 kmh 29.87 in1011.5 mb 0.01 in0.3 mm 0.00 in0.0 mm 0.04 in1.0 mm
02:30 AM 64.2°F17.9°C 50.5°F10.3°C 61% 15.2 mph NNE24.5 kmh NNE 28.9 mph46.5 kmh 29.86 in1011.2 mb 0.00 in0.0 mm 0.00 in0.0 mm 0.04 in1.0 mm
02:45 AM 64.6°F18.1°C 50.8°F10.4°C 61% 13.6 mph NE21.9 kmh NE 29.8 mph48.0 kmh 29.86 in1011.2 mb 0.00 in0.0 mm 0.00 in0.0 mm 0.04 in1.0 mm
03:00 AM 64.2°F17.9°C 50.9°F10.5°C 62% 16.8 mph NE27.0 kmh NE 23.5 mph37.8 kmh 29.87 in1011.5 mb 0.00 in0.0 mm 0.00 in0.0 mm 0.04 in1.0 mm
03:15 AM 63.9°F17.7°C 50.6°F10.3°C 62% 9.8 mph N15.8 kmh N 23.5 mph37.8 kmh 29.87 in1011.5 mb 0.00 in0.0 mm 0.00 in0.0 mm 0.04 in1.0 mm
03:30 AM 64.4°F18.0°C 51.1°F10.6°C 62% 14.5 mph NNE23.3 kmh NNE 27.3 mph43.9 kmh 29.87 in1011.5 mb 0.00 in0.0 mm 0.00 in0.0 mm 0.04 in1.0 mm
03:45 AM 64.6°F18.1°C 51.7°F10.9°C 63% 14.5 mph NNE23.3 kmh NNE 28.2 mph45.4 kmh 29.87 in1011.5 mb 0.00 in0.0 mm 0.00 in0.0 mm 0.04 in1.0 mm
04:00 AM 64.6°F18.1°C 51.7°F10.9°C 63% 13.6 mph NE21.9 kmh NE 32.0 mph51.5 kmh 29.87 in1011.5 mb 0.00 in0.0 mm 0.00 in0.0 mm 0.04 in1.0 mm
04:15 AM 64.8°F18.2°C 51.9°F11.1°C 63% 15.2 mph NE24.5 kmh NE 27.3 mph43.9 kmh 29.88 in1011.9 mb 0.00 in0.0 mm 0.00 in0.0 mm 0.04 in1.0 mm
04:30 AM 64.9°F18.3°C 52.5°F11.4°C 64% 19.7 mph N31.7 kmh N 33.6 mph54.1 kmh 29.88 in1011.9 mb 0.00 in0.0 mm 0.00 in0.0 mm 0.04 in1.0 mm
04:45 AM 65.5°F18.6°C 53.0°F11.7°C 64% 19.0 mph NNE30.6 kmh NNE 32.0 mph51.5 kmh 29.88 in1011.9 mb 0.00 in0.0 mm 0.00 in0.0 mm 0.04 in1.0 mm
05:00 AM 65.3°F18.5°C 52.8°F11.6°C 64% 11.4 mph NNE18.3 kmh NNE 29.8 mph48.0 kmh 29.89 in1012.2 mb 0.00 in0.0 mm 0.00 in0.0 mm 0.04 in1.0 mm
05:15 AM 64.8°F18.2°C 53.6°F12.0°C 67% 18.3 mph NNE29.5 kmh NNE 28.9 mph46.5 kmh 29.90 in1012.5 mb 0.00 in0.0 mm 0.00 in0.0 mm 0.04 in1.0 mm
05:30 AM 65.5°F18.6°C 53.4°F11.9°C 65% 14.5 mph NE23.3 kmh NE 33.6 mph54.1 kmh 29.91 in1012.9 mb 0.00 in0.0 mm 0.00 in0.0 mm 0.04 in1.0 mm
05:45 AM 64.2°F17.9°C 54.2°F12.3°C 70% 19.0 mph NE30.6 kmh NE 29.8 mph48.0 kmh 29.91 in1012.9 mb 0.00 in0.0 mm 0.00 in0.0 mm 0.04 in1.0 mm
06:00 AM 64.4°F18.0°C 54.4°F12.4°C 70% 19.7 mph NE31.7 kmh NE 30.4 mph48.9 kmh 29.92 in1013.2 mb 0.00 in0.0 mm 0.00 in0.0 mm 0.04 in1.0 mm
06:15 AM 64.8°F18.2°C 54.0°F12.2°C 68% 15.2 mph NE24.5 kmh NE 30.4 mph48.9 kmh 29.93 in1013.5 mb 0.00 in0.0 mm 0.00 in0.0 mm 0.04 in1.0 mm
06:30 AM 64.9°F18.3°C 53.7°F12.1°C 67% 19.0 mph NE30.6 kmh NE 32.0 mph51.5 kmh 29.95 in1014.2 mb 0.00 in0.0 mm 0.00 in0.0 mm 0.04 in1.0 mm
06:45 AM 65.1°F18.4°C 53.9°F12.2°C 67% 15.9 mph NNE25.6 kmh NNE 31.1 mph50.1 kmh 29.95 in1014.2 mb 0.00 in0.0 mm 0.00 in0.0 mm 0.04 in1.0 mm
07:00 AM 65.1°F18.4°C 53.9°F12.2°C 67% 13.6 mph NE21.9 kmh NE 31.1 mph50.1 kmh 29.97 in1014.9 mb 0.00 in0.0 mm 0.00 in0.0 mm 0.04 in1.0 mm
07:15 AM 65.3°F18.5°C 54.5°F12.5°C 68% 20.6 mph NE33.2 kmh NE 32.0 mph51.5 kmh 29.96 in1014.6 mb 0.00 in0.0 mm 0.00 in0.0 mm 0.04 in1.0 mm
07:30 AM 63.7°F17.6°C 54.9°F12.7°C 73% 9.8 mph ENE15.8 kmh ENE 25.9 mph41.7 kmh 29.98 in1015.2 mb 0.01 in0.3 mm 0.04 in1.0 mm 0.05 in1.3 mm
07:45 AM 63.7°F17.6°C 54.5°F12.5°C 72% 12.1 mph NNE19.5 kmh NNE 30.4 mph48.9 kmh 29.98 in1015.2 mb 0.01 in0.3 mm 0.00 in0.0 mm 0.05 in1.3 mm
08:00 AM 64.0°F17.8°C 54.8°F12.7°C 72% 18.3 mph NE29.5 kmh NE 30.4 mph48.9 kmh 29.99 in1015.6 mb 0.03 in0.8 mm 0.03 in0.8 mm 0.07 in1.8 mm
08:15 AM 64.8°F18.2°C 55.2°F12.9°C 71% 15.2 mph NE24.5 kmh NE 33.6 mph54.1 kmh 29.99 in1015.6 mb 0.03 in0.8 mm 0.00 in0.0 mm 0.07 in1.8 mm
08:30 AM 65.7°F18.7°C 54.8°F12.7°C 68% 19.0 mph NE30.6 kmh NE 37.4 mph60.2 kmh 30.01 in1016.3 mb 0.01 in0.3 mm 0.00 in0.0 mm 0.07 in1.8 mm
08:45 AM 64.0°F17.8°C 54.8°F12.7°C 72% 17.4 mph NE28.0 kmh NE 26.6 mph42.8 kmh 30.01 in1016.3 mb 0.03 in0.8 mm 0.08 in2.0 mm 0.08 in2.0 mm
09:00 AM 65.1°F18.4°C 55.9°F13.3°C 72% 26.6 mph NE42.8 kmh NE 33.6 mph54.1 kmh 30.02 in1016.6 mb 0.03 in0.8 mm 0.00 in0.0 mm 0.10 in2.5 mm
09:15 AM 66.0°F18.9°C 55.2°F12.9°C 68% 13.6 mph NE21.9 kmh NE 30.4 mph48.9 kmh 30.04 in1017.3 mb 0.03 in0.8 mm 0.00 in0.0 mm 0.10 in2.5 mm
09:30 AM 64.2°F17.9°C 55.4°F13.0°C 73% 15.9 mph NE25.6 kmh NE 27.3 mph43.9 kmh 30.06 in1017.9 mb 0.04 in1.0 mm 0.04 in1.0 mm 0.12 in3.0 mm
09:45 AM 65.5°F18.6°C 56.6°F13.7°C 73% 11.4 mph NE18.3 kmh NE 28.2 mph45.4 kmh 30.06 in1017.9 mb 0.04 in1.0 mm 0.00 in0.0 mm 0.14 in3.6 mm
10:00 AM 66.0°F18.9°C 56.8°F13.8°C 72% 22.8 mph NE36.7 kmh NE 30.4 mph48.9 kmh 30.07 in1018.3 mb 0.04 in1.0 mm 0.00 in0.0 mm 0.14 in3.6 mm
10:15 AM 66.9°F19.4°C 56.4°F13.6°C 69% 13.6 mph NE21.9 kmh NE 29.8 mph48.0 kmh 30.07 in1018.3 mb 0.04 in1.0 mm 0.00 in0.0 mm 0.14 in3.6 mm
10:30 AM 68.2°F20.1°C 55.6°F13.1°C 64% 9.8 mph NE15.8 kmh NE 29.8 mph48.0 kmh 30.08 in1018.6 mb 0.01 in0.3 mm 0.00 in0.0 mm 0.14 in3.6 mm
10:45 AM 69.3°F20.7°C 55.3°F12.9°C 61% 17.4 mph NE28.0 kmh NE 31.1 mph50.1 kmh 30.08 in1018.6 mb 0.00 in0.0 mm 0.00 in0.0 mm 0.14 in3.6 mm
11:00 AM 69.3°F20.7°C 54.8°F12.7°C 60% 9.2 mph NNE14.8 kmh NNE 28.2 mph45.4 kmh 30.09 in1019.0 mb 0.00 in0.0 mm 0.00 in0.0 mm 0.14 in3.6 mm
11:15 AM 69.6°F20.9°C 54.2°F12.3°C 58% 16.8 mph NE27.0 kmh NE 26.6 mph42.8 kmh 30.09 in1019.0 mb 0.00 in0.0 mm 0.00 in0.0 mm 0.14 in3.6 mm
11:30 AM 69.6°F20.9°C 54.7°F12.6°C 59% 9.8 mph ENE15.8 kmh ENE 27.3 mph43.9 kmh 30.10 in1019.3 mb 0.00 in0.0 mm 0.00 in0.0 mm 0.14 in3.6 mm
11:45 AM 70.0°F21.1°C 54.1°F12.3°C 57% 6.9 mph NE11.1 kmh NE 26.6 mph42.8 kmh 30.10 in1019.3 mb 0.00 in0.0 mm 0.00 in0.0 mm 0.14 in3.6 mm
12:00 PM 70.7°F21.5°C 54.3°F12.4°C 56% 12.1 mph NNE19.5 kmh NNE 26.6 mph42.8 kmh 30.11 in1019.6 mb 0.00 in0.0 mm 0.00 in0.0 mm 0.14 in3.6 mm
12:15 PM 70.9°F21.6°C 53.9°F12.2°C 55% 16.8 mph NNE27.0 kmh NNE 26.6 mph42.8 kmh 30.12 in1020.0 mb 0.00 in0.0 mm 0.00 in0.0 mm 0.14 in3.6 mm
12:30 PM 71.4°F21.9°C 53.9°F12.2°C 54% 15.9 mph NNE25.6 kmh NNE 24.4 mph39.3 kmh 30.12 in1020.0 mb 0.00 in0.0 mm 0.00 in0.0 mm 0.14 in3.6 mm
12:45 PM 71.2°F21.8°C 53.8°F12.1°C 54% 13.6 mph NNE21.9 kmh NNE 28.2 mph45.4 kmh 30.11 in1019.6 mb 0.00 in0.0 mm 0.00 in0.0 mm 0.14 in3.6 mm
01:00 PM 71.4°F21.9°C 53.9°F12.2°C 54% 11.4 mph NE18.3 kmh NE 23.5 mph37.8 kmh 30.12 in1020.0 mb 0.00 in0.0 mm 0.00 in0.0 mm 0.14 in3.6 mm
01:15 PM 72.7°F22.6°C 53.5°F11.9°C 51% 13.6 mph E21.9 kmh E 25.1 mph40.4 kmh 30.12 in1020.0 mb 0.00 in0.0 mm 0.00 in0.0 mm 0.14 in3.6 mm
01:30 PM 72.7°F22.6°C 53.5°F11.9°C 51% 22.1 mph NNE35.6 kmh NNE 32.0 mph51.5 kmh 30.12 in1020.0 mb 0.00 in0.0 mm 0.00 in0.0 mm 0.14 in3.6 mm
01:45 PM 73.2°F22.9°C 53.5°F11.9°C 50% 10.7 mph NNW17.2 kmh NNW 28.9 mph46.5 kmh 30.13 in1020.3 mb 0.00 in0.0 mm 0.00 in0.0 mm 0.14 in3.6 mm
02:00 PM 73.0°F22.8°C 53.3°F11.8°C 50% 13.0 mph NE20.9 kmh NE 24.4 mph39.3 kmh 30.12 in1020.0 mb 0.00 in0.0 mm 0.00 in0.0 mm 0.14 in3.6 mm
02:15 PM 73.6°F23.1°C 54.4°F12.4°C 51% 2.2 mph ENE3.5 kmh ENE 20.6 mph33.2 kmh 30.13 in1020.3 mb 0.00 in0.0 mm 0.00 in0.0 mm 0.14 in3.6 mm
02:30 PM 75.9°F24.4°C 56.5°F13.6°C 51% 9.2 mph ENE14.8 kmh ENE 15.9 mph25.6 kmh 30.13 in1020.3 mb 0.00 in0.0 mm 0.00 in0.0 mm 0.14 in3.6 mm
02:45 PM 77.2°F25.1°C 54.2°F12.3°C 45% 10.7 mph E17.2 kmh E 20.6 mph33.2 kmh 30.13 in1020.3 mb 0.00 in0.0 mm 0.00 in0.0 mm 0.14 in3.6 mm
03:00 PM 77.2°F25.1°C 53.0°F11.7°C 43% 3.1 mph NE5.0 kmh NE 21.3 mph34.3 kmh 30.13 in1020.3 mb 0.00 in0.0 mm 0.00 in0.0 mm 0.14 in3.6 mm
03:15 PM 77.0°F25.0°C 53.5°F11.9°C 44% 7.6 mph E12.2 kmh E 22.8 mph36.7 kmh 30.13 in1020.3 mb 0.00 in0.0 mm 0.00 in0.0 mm 0.14 in3.6 mm
03:30 PM 78.6°F25.9°C 53.6°F12.0°C 42% 5.4 mph E8.7 kmh E 14.5 mph23.3 kmh 30.13 in1020.3 mb 0.00 in0.0 mm 0.00 in0.0 mm 0.14 in3.6 mm
03:45 PM 78.6°F25.9°C 53.6°F12.0°C 42% 7.6 mph ESE12.2 kmh ESE 17.4 mph28.0 kmh 30.13 in1020.3 mb 0.00 in0.0 mm 0.00 in0.0 mm 0.14 in3.6 mm
04:00 PM 77.2°F25.1°C 53.0°F11.7°C 43% 6.9 mph E11.1 kmh E 13.6 mph21.9 kmh 30.13 in1020.3 mb 0.00 in0.0 mm 0.00 in0.0 mm 0.14 in3.6 mm
04:15 PM 77.2°F25.1°C 51.7°F10.9°C 41% 5.4 mph E8.7 kmh E 15.9 mph25.6 kmh 30.13 in1020.3 mb 0.00 in0.0 mm 0.00 in0.0 mm 0.14 in3.6 mm
04:30 PM 78.6°F25.9°C 53.0°F11.7°C 41% 8.3 mph ESE13.4 kmh ESE 13.6 mph21.9 kmh 30.13 in1020.3 mb 0.00 in0.0 mm 0.00 in0.0 mm 0.14 in3.6 mm
04:45 PM 77.2°F25.1°C 53.0°F11.7°C 43% 7.6 mph E12.2 kmh E 15.2 mph24.5 kmh 30.13 in1020.3 mb 0.00 in0.0 mm 0.00 in0.0 mm 0.14 in3.6 mm
05:00 PM 77.2°F25.1°C 52.3°F11.3°C 42% 8.3 mph SSE13.4 kmh SSE 15.2 mph24.5 kmh 30.14 in1020.7 mb 0.00 in0.0 mm 0.00 in0.0 mm 0.14 in3.6 mm
05:15 PM 77.2°F25.1°C 52.3°F11.3°C 42% 11.4 mph SSE18.3 kmh SSE 15.9 mph25.6 kmh 30.15 in1021.0 mb 0.00 in0.0 mm 0.00 in0.0 mm 0.14 in3.6 mm
05:30 PM 77.0°F25.0°C 52.8°F11.6°C 43% 12.1 mph ESE19.5 kmh ESE 22.1 mph35.6 kmh 30.16 in1021.3 mb 0.00 in0.0 mm 0.00 in0.0 mm 0.14 in3.6 mm
05:45 PM 76.3°F24.6°C 53.4°F11.9°C 45% 8.3 mph ESE13.4 kmh ESE 15.2 mph24.5 kmh 30.16 in1021.3 mb 0.00 in0.0 mm 0.00 in0.0 mm 0.14 in3.6 mm
06:00 PM 76.5°F24.7°C 53.6°F12.0°C 45% 5.4 mph ESE8.7 kmh ESE 13.0 mph20.9 kmh 30.17 in1021.7 mb 0.00 in0.0 mm 0.00 in0.0 mm 0.14 in3.6 mm
06:15 PM 74.7°F23.7°C 52.5°F11.4°C 46% 3.8 mph SE6.1 kmh SE 13.6 mph21.9 kmh 30.17 in1021.7 mb 0.00 in0.0 mm 0.00 in0.0 mm 0.14 in3.6 mm
06:30 PM 74.5°F23.6°C 51.8°F11.0°C 45% 4.5 mph ESE7.2 kmh ESE 8.3 mph13.4 kmh 30.17 in1021.7 mb 0.00 in0.0 mm 0.00 in0.0 mm 0.14 in3.6 mm
06:45 PM 73.6°F23.1°C 51.6°F10.9°C 46% 4.5 mph SE7.2 kmh SE 9.2 mph14.8 kmh 30.17 in1021.7 mb 0.00 in0.0 mm 0.00 in0.0 mm 0.14 in3.6 mm
07:00 PM 72.9°F22.7°C 52.1°F11.2°C 48% 3.8 mph SE6.1 kmh SE 6.9 mph11.1 kmh 30.17 in1021.7 mb 0.00 in0.0 mm 0.00 in0.0 mm 0.14 in3.6 mm
07:15 PM 72.1°F22.3°C 52.0°F11.1°C 49% 3.1 mph E5.0 kmh E 6.0 mph9.7 kmh 30.19 in1022.4 mb 0.00 in0.0 mm 0.00 in0.0 mm 0.14 in3.6 mm
07:30 PM 71.4°F21.9°C 52.4°F11.3°C 51% 1.6 mph N2.6 kmh N 3.8 mph6.1 kmh 30.18 in1022.0 mb 0.00 in0.0 mm 0.00 in0.0 mm 0.14 in3.6 mm
07:45 PM 70.9°F21.6°C 52.9°F11.6°C 53% 0.7 mph NNW1.1 kmh NNW 3.8 mph6.1 kmh 30.19 in1022.4 mb 0.00 in0.0 mm 0.00 in0.0 mm 0.14 in3.6 mm
08:00 PM 70.7°F21.5°C 52.8°F11.6°C 53% 0.7 mph N1.1 kmh N 2.2 mph3.5 kmh 30.19 in1022.4 mb 0.00 in0.0 mm 0.00 in0.0 mm 0.14 in3.6 mm
08:15 PM 70.3°F21.3°C 52.9°F11.6°C 54% Calm Calm 3.8 mph6.1 kmh 30.20 in1022.7 mb 0.00 in0.0 mm 0.00 in0.0 mm 0.14 in3.6 mm
08:30 PM 70.2°F21.2°C 52.3°F11.3°C 53% 0.7 mph NE1.1 kmh NE 2.2 mph3.5 kmh 30.19 in1022.4 mb 0.00 in0.0 mm 0.00 in0.0 mm 0.14 in3.6 mm
08:45 PM 70.3°F21.3°C 51.9°F11.1°C 52% 3.1 mph NE5.0 kmh NE 5.4 mph8.7 kmh 30.20 in1022.7 mb 0.00 in0.0 mm 0.00 in0.0 mm 0.14 in3.6 mm
09:00 PM 70.7°F21.5°C 51.2°F10.7°C 50% 3.8 mph NE6.1 kmh NE 6.0 mph9.7 kmh 30.21 in1023.0 mb 0.00 in0.0 mm 0.00 in0.0 mm 0.14 in3.6 mm
09:15 PM 70.5°F21.4°C 51.0°F10.6°C 50% 2.2 mph N3.5 kmh N 6.0 mph9.7 kmh 30.20 in1022.7 mb 0.00 in0.0 mm 0.00 in0.0 mm 0.14 in3.6 mm
09:30 PM 70.5°F21.4°C 51.0°F10.6°C 50% 2.2 mph NE3.5 kmh NE 3.8 mph6.1 kmh 30.20 in1022.7 mb 0.00 in0.0 mm 0.00 in0.0 mm 0.14 in3.6 mm
09:45 PM 70.7°F21.5°C 50.6°F10.3°C 49% 3.8 mph NE6.1 kmh NE 6.0 mph9.7 kmh 30.20 in1022.7 mb 0.00 in0.0 mm 0.00 in0.0 mm 0.14 in3.6 mm
10:00 PM 71.8°F22.1°C 49.3°F9.6°C 45% 6.9 mph NE11.1 kmh NE 12.1 mph19.5 kmh 30.21 in1023.0 mb 0.00 in0.0 mm 0.00 in0.0 mm 0.14 in3.6 mm
10:15 PM 72.1°F22.3°C 48.4°F9.1°C 43% 5.4 mph NE8.7 kmh NE 12.1 mph19.5 kmh 30.21 in1023.0 mb 0.00 in0.0 mm 0.00 in0.0 mm 0.14 in3.6 mm
10:30 PM 72.1°F22.3°C 48.4°F9.1°C 43% 3.1 mph NE5.0 kmh NE 8.3 mph13.4 kmh 30.21 in1023.0 mb 0.00 in0.0 mm 0.00 in0.0 mm 0.14 in3.6 mm
10:45 PM 71.2°F21.8°C 48.8°F9.3°C 45% 1.6 mph NE2.6 kmh NE 4.5 mph7.2 kmh 30.21 in1023.0 mb 0.00 in0.0 mm 0.00 in0.0 mm 0.14 in3.6 mm
11:00 PM 70.9°F21.6°C 49.7°F9.8°C 47% 1.6 mph NW2.6 kmh NW 4.5 mph7.2 kmh 30.21 in1023.0 mb 0.00 in0.0 mm 0.00 in0.0 mm 0.10 in2.5 mm
11:15 PM 71.6°F22.0°C 47.3°F8.5°C 42% 5.4 mph N8.7 kmh N 10.7 mph17.2 kmh 30.21 in1023.0 mb 0.00 in0.0 mm 0.00 in0.0 mm 0.10 in2.5 mm
11:30 PM 71.6°F22.0°C 47.9°F8.8°C 43% 4.5 mph NNE7.2 kmh NNE 9.2 mph14.8 kmh 30.21 in1023.0 mb 0.00 in0.0 mm 0.00 in0.0 mm 0.10 in2.5 mm
11:45 PM 71.6°F22.0°C 47.3°F8.5°C 42% 6.0 mph NNE9.7 kmh NNE 7.6 mph12.2 kmh 30.21 in1023.0 mb 0.00 in0.0 mm 0.00 in0.0 mm 0.10 in2.5 mm